sensor_id;sensor_type;location;lat;lon;timestamp;P1;durP1;ratioP1;P2;durP2;ratioP2
52508;SDS011;38420;53.150;6.370;2023-12-04T00:00:15;60.53;;;30.17;;
52508;SDS011;38420;53.150;6.370;2023-12-04T00:02:41;68.63;;;30.50;;
52508;SDS011;38420;53.150;6.370;2023-12-04T00:05:07;58.70;;;30.55;;
52508;SDS011;38420;53.150;6.370;2023-12-04T00:07:33;60.13;;;29.60;;
52508;SDS011;38420;53.150;6.370;2023-12-04T00:09:58;65.22;;;32.78;;
52508;SDS011;38420;53.150;6.370;2023-12-04T00:12:24;61.92;;;33.45;;
52508;SDS011;38420;53.150;6.370;2023-12-04T00:14:50;67.80;;;33.80;;
52508;SDS011;38420;53.150;6.370;2023-12-04T00:17:16;71.43;;;31.50;;
52508;SDS011;38420;53.150;6.370;2023-12-04T00:19:42;69.20;;;33.78;;
52508;SDS011;38420;53.150;6.370;2023-12-04T00:22:07;67.32;;;32.80;;
52508;SDS011;38420;53.150;6.370;2023-12-04T00:24:33;64.65;;;35.90;;
52508;SDS011;38420;53.150;6.370;2023-12-04T00:26:59;67.95;;;33.63;;
52508;SDS011;38420;53.150;6.370;2023-12-04T00:29:24;69.47;;;37.92;;
52508;SDS011;38420;53.150;6.370;2023-12-04T00:31:50;64.82;;;35.17;;
52508;SDS011;38420;53.150;6.370;2023-12-04T00:34:15;60.05;;;32.42;;
52508;SDS011;38420;53.150;6.370;2023-12-04T00:36:41;63.47;;;32.40;;
52508;SDS011;38420;53.150;6.370;2023-12-04T00:39:07;64.18;;;32.10;;
52508;SDS011;38420;53.150;6.370;2023-12-04T00:41:33;68.20;;;35.00;;
52508;SDS011;38420;53.150;6.370;2023-12-04T00:43:59;70.07;;;33.92;;
52508;SDS011;38420;53.150;6.370;2023-12-04T00:46:24;71.68;;;37.08;;
52508;SDS011;38420;53.150;6.370;2023-12-04T00:48:50;62.78;;;33.47;;
52508;SDS011;38420;53.150;6.370;2023-12-04T00:51:16;65.78;;;35.30;;
52508;SDS011;38420;53.150;6.370;2023-12-04T00:53:42;65.82;;;34.08;;
52508;SDS011;38420;53.150;6.370;2023-12-04T00:56:08;62.78;;;33.42;;
52508;SDS011;38420;53.150;6.370;2023-12-04T00:58:34;63.75;;;34.33;;
52508;SDS011;38420;53.150;6.370;2023-12-04T01:01:00;68.53;;;35.92;;
52508;SDS011;38420;53.150;6.370;2023-12-04T01:03:26;62.25;;;34.42;;
52508;SDS011;38420;53.150;6.370;2023-12-04T01:05:51;63.00;;;36.00;;
52508;SDS011;38420;53.150;6.370;2023-12-04T01:08:17;67.65;;;35.58;;
52508;SDS011;38420;53.150;6.370;2023-12-04T01:10:43;64.60;;;36.63;;
52508;SDS011;38420;53.150;6.370;2023-12-04T01:13:08;59.15;;;35.22;;
52508;SDS011;38420;53.150;6.370;2023-12-04T01:15:34;70.13;;;36.67;;
52508;SDS011;38420;53.150;6.370;2023-12-04T01:18:00;67.10;;;39.08;;
52508;SDS011;38420;53.150;6.370;2023-12-04T01:20:26;70.28;;;39.38;;
52508;SDS011;38420;53.150;6.370;2023-12-04T01:22:51;70.38;;;40.50;;
52508;SDS011;38420;53.150;6.370;2023-12-04T01:25:17;68.72;;;40.17;;
52508;SDS011;38420;53.150;6.370;2023-12-04T01:27:44;71.65;;;39.88;;
52508;SDS011;38420;53.150;6.370;2023-12-04T01:30:09;69.15;;;41.25;;
52508;SDS011;38420;53.150;6.370;2023-12-04T01:32:36;70.07;;;39.92;;
52508;SDS011;38420;53.150;6.370;2023-12-04T01:35:02;70.75;;;41.38;;
52508;SDS011;38420;53.150;6.370;2023-12-04T01:37:27;75.00;;;41.45;;
52508;SDS011;38420;53.150;6.370;2023-12-04T01:39:53;71.50;;;41.85;;
52508;SDS011;38420;53.150;6.370;2023-12-04T01:42:19;69.75;;;43.92;;
52508;SDS011;38420;53.150;6.370;2023-12-04T01:44:44;76.18;;;44.92;;
52508;SDS011;38420;53.150;6.370;2023-12-04T01:47:10;72.20;;;43.55;;
52508;SDS011;38420;53.150;6.370;2023-12-04T01:49:36;76.97;;;44.15;;
52508;SDS011;38420;53.150;6.370;2023-12-04T01:52:02;73.63;;;45.05;;
52508;SDS011;38420;53.150;6.370;2023-12-04T01:54:29;64.43;;;41.58;;
52508;SDS011;38420;53.150;6.370;2023-12-04T01:56:56;79.22;;;43.42;;
52508;SDS011;38420;53.150;6.370;2023-12-04T01:59:23;68.88;;;43.47;;
52508;SDS011;38420;53.150;6.370;2023-12-04T02:01:50;68.57;;;42.17;;
52508;SDS011;38420;53.150;6.370;2023-12-04T02:04:17;72.68;;;43.83;;
52508;SDS011;38420;53.150;6.370;2023-12-04T02:06:43;66.20;;;41.35;;
52508;SDS011;38420;53.150;6.370;2023-12-04T02:09:09;69.30;;;41.20;;
52508;SDS011;38420;53.150;6.370;2023-12-04T02:11:37;66.22;;;43.47;;
52508;SDS011;38420;53.150;6.370;2023-12-04T02:14:04;65.05;;;41.90;;
52508;SDS011;38420;53.150;6.370;2023-12-04T02:16:30;73.05;;;44.97;;
52508;SDS011;38420;53.150;6.370;2023-12-04T02:18:56;70.95;;;42.42;;
52508;SDS011;38420;53.150;6.370;2023-12-04T02:21:22;76.32;;;44.10;;
52508;SDS011;38420;53.150;6.370;2023-12-04T02:23:51;70.80;;;43.60;;
52508;SDS011;38420;53.150;6.370;2023-12-04T02:26:18;69.70;;;45.15;;
52508;SDS011;38420;53.150;6.370;2023-12-04T02:28:51;72.22;;;48.65;;
52508;SDS011;38420;53.150;6.370;2023-12-04T02:31:20;70.40;;;46.20;;
52508;SDS011;38420;53.150;6.370;2023-12-04T02:33:48;76.60;;;49.65;;
52508;SDS011;38420;53.150;6.370;2023-12-04T02:36:21;68.10;;;47.00;;
52508;SDS011;38420;53.150;6.370;2023-12-04T02:38:49;74.07;;;51.80;;
52508;SDS011;38420;53.150;6.370;2023-12-04T02:41:15;70.20;;;48.45;;
52508;SDS011;38420;53.150;6.370;2023-12-04T02:43:42;71.03;;;52.30;;
52508;SDS011;38420;53.150;6.370;2023-12-04T02:46:08;70.35;;;48.92;;
52508;SDS011;38420;53.150;6.370;2023-12-04T02:48:34;68.10;;;46.75;;
52508;SDS011;38420;53.150;6.370;2023-12-04T02:51:00;67.80;;;44.55;;
52508;SDS011;38420;53.150;6.370;2023-12-04T02:53:26;73.25;;;46.00;;
52508;SDS011;38420;53.150;6.370;2023-12-04T02:55:52;70.10;;;44.38;;
52508;SDS011;38420;53.150;6.370;2023-12-04T02:58:17;67.57;;;43.08;;
52508;SDS011;38420;53.150;6.370;2023-12-04T03:00:43;68.00;;;41.83;;
52508;SDS011;38420;53.150;6.370;2023-12-04T03:03:09;72.03;;;43.58;;
52508;SDS011;38420;53.150;6.370;2023-12-04T03:05:35;69.78;;;42.67;;
52508;SDS011;38420;53.150;6.370;2023-12-04T03:08:00;64.38;;;39.53;;
52508;SDS011;38420;53.150;6.370;2023-12-04T03:10:26;65.00;;;40.78;;
52508;SDS011;38420;53.150;6.370;2023-12-04T03:12:52;68.47;;;40.33;;
52508;SDS011;38420;53.150;6.370;2023-12-04T03:15:17;69.15;;;42.42;;
52508;SDS011;38420;53.150;6.370;2023-12-04T03:17:43;66.18;;;40.72;;
52508;SDS011;38420;53.150;6.370;2023-12-04T03:20:09;66.38;;;42.10;;
52508;SDS011;38420;53.150;6.370;2023-12-04T03:22:36;59.00;;;37.60;;
52508;SDS011;38420;53.150;6.370;2023-12-04T03:25:02;66.72;;;39.00;;
52508;SDS011;38420;53.150;6.370;2023-12-04T03:27:27;66.95;;;39.25;;
52508;SDS011;38420;53.150;6.370;2023-12-04T03:29:53;65.43;;;38.75;;
52508;SDS011;38420;53.150;6.370;2023-12-04T03:32:19;67.25;;;41.42;;
52508;SDS011;38420;53.150;6.370;2023-12-04T03:34:45;66.05;;;40.95;;
52508;SDS011;38420;53.150;6.370;2023-12-04T03:37:10;69.07;;;41.25;;
52508;SDS011;38420;53.150;6.370;2023-12-04T03:39:36;72.68;;;41.67;;
52508;SDS011;38420;53.150;6.370;2023-12-04T03:42:02;72.07;;;41.13;;
52508;SDS011;38420;53.150;6.370;2023-12-04T03:44:28;71.75;;;41.20;;
52508;SDS011;38420;53.150;6.370;2023-12-04T03:46:53;77.93;;;42.25;;
52508;SDS011;38420;53.150;6.370;2023-12-04T03:49:19;67.43;;;41.13;;
52508;SDS011;38420;53.150;6.370;2023-12-04T03:51:45;70.68;;;37.50;;
52508;SDS011;38420;53.150;6.370;2023-12-04T03:54:11;67.18;;;37.80;;
52508;SDS011;38420;53.150;6.370;2023-12-04T03:56:38;65.78;;;38.35;;
52508;SDS011;38420;53.150;6.370;2023-12-04T03:59:05;73.75;;;37.75;;
52508;SDS011;38420;53.150;6.370;2023-12-04T04:01:30;65.32;;;37.38;;
52508;SDS011;38420;53.150;6.370;2023-12-04T04:03:56;63.72;;;34.90;;
52508;SDS011;38420;53.150;6.370;2023-12-04T04:06:22;62.50;;;37.08;;
52508;SDS011;38420;53.150;6.370;2023-12-04T04:08:47;60.47;;;36.15;;
52508;SDS011;38420;53.150;6.370;2023-12-04T04:11:13;63.22;;;35.30;;
52508;SDS011;38420;53.150;6.370;2023-12-04T04:13:39;63.33;;;35.13;;
52508;SDS011;38420;53.150;6.370;2023-12-04T04:16:05;61.95;;;32.88;;
52508;SDS011;38420;53.150;6.370;2023-12-04T04:18:31;57.15;;;32.50;;
52508;SDS011;38420;53.150;6.370;2023-12-04T04:20:57;63.50;;;34.22;;
52508;SDS011;38420;53.150;6.370;2023-12-04T04:23:22;58.15;;;32.60;;
52508;SDS011;38420;53.150;6.370;2023-12-04T04:25:48;63.60;;;33.35;;
52508;SDS011;38420;53.150;6.370;2023-12-04T04:28:13;66.18;;;32.05;;
52508;SDS011;38420;53.150;6.370;2023-12-04T04:30:39;61.38;;;30.23;;
52508;SDS011;38420;53.150;6.370;2023-12-04T04:33:05;62.83;;;32.10;;
52508;SDS011;38420;53.150;6.370;2023-12-04T04:35:31;57.30;;;29.42;;
52508;SDS011;38420;53.150;6.370;2023-12-04T04:37:57;56.92;;;29.75;;
52508;SDS011;38420;53.150;6.370;2023-12-04T04:40:22;61.10;;;30.88;;
52508;SDS011;38420;53.150;6.370;2023-12-04T04:42:48;60.20;;;29.52;;
52508;SDS011;38420;53.150;6.370;2023-12-04T04:45:14;56.47;;;29.42;;
52508;SDS011;38420;53.150;6.370;2023-12-04T04:47:39;56.67;;;30.10;;
52508;SDS011;38420;53.150;6.370;2023-12-04T04:50:05;60.45;;;30.98;;
52508;SDS011;38420;53.150;6.370;2023-12-04T04:52:31;60.00;;;29.50;;
52508;SDS011;38420;53.150;6.370;2023-12-04T04:54:57;56.67;;;30.05;;
52508;SDS011;38420;53.150;6.370;2023-12-04T04:57:23;57.80;;;29.63;;
52508;SDS011;38420;53.150;6.370;2023-12-04T04:59:48;64.00;;;30.58;;
52508;SDS011;38420;53.150;6.370;2023-12-04T05:02:14;55.10;;;28.42;;
52508;SDS011;38420;53.150;6.370;2023-12-04T05:04:40;54.25;;;28.40;;
52508;SDS011;38420;53.150;6.370;2023-12-04T05:07:05;54.10;;;27.65;;
52508;SDS011;38420;53.150;6.370;2023-12-04T05:09:31;60.05;;;27.77;;
52508;SDS011;38420;53.150;6.370;2023-12-04T05:11:57;52.35;;;27.60;;
52508;SDS011;38420;53.150;6.370;2023-12-04T05:14:22;58.42;;;30.05;;
52508;SDS011;38420;53.150;6.370;2023-12-04T05:16:48;52.55;;;26.63;;
52508;SDS011;38420;53.150;6.370;2023-12-04T05:19:14;54.45;;;27.73;;
52508;SDS011;38420;53.150;6.370;2023-12-04T05:21:40;54.42;;;26.77;;
52508;SDS011;38420;53.150;6.370;2023-12-04T05:24:05;52.28;;;24.95;;
52508;SDS011;38420;53.150;6.370;2023-12-04T05:26:31;49.80;;;25.48;;
52508;SDS011;38420;53.150;6.370;2023-12-04T05:28:57;52.40;;;26.60;;
52508;SDS011;38420;53.150;6.370;2023-12-04T05:31:22;51.88;;;26.17;;
52508;SDS011;38420;53.150;6.370;2023-12-04T05:33:48;50.70;;;26.10;;
52508;SDS011;38420;53.150;6.370;2023-12-04T05:36:14;54.55;;;27.25;;
52508;SDS011;38420;53.150;6.370;2023-12-04T05:38:39;50.22;;;25.85;;
52508;SDS011;38420;53.150;6.370;2023-12-04T05:41:05;51.00;;;26.02;;
52508;SDS011;38420;53.150;6.370;2023-12-04T05:43:31;49.65;;;25.45;;
52508;SDS011;38420;53.150;6.370;2023-12-04T05:45:57;46.88;;;24.92;;
52508;SDS011;38420;53.150;6.370;2023-12-04T05:48:23;49.28;;;25.30;;
52508;SDS011;38420;53.150;6.370;2023-12-04T05:50:49;52.40;;;25.23;;
52508;SDS011;38420;53.150;6.370;2023-12-04T05:53:14;47.25;;;23.65;;
52508;SDS011;38420;53.150;6.370;2023-12-04T05:55:41;49.45;;;24.83;;
52508;SDS011;38420;53.150;6.370;2023-12-04T05:58:06;51.25;;;24.55;;
52508;SDS011;38420;53.150;6.370;2023-12-04T06:00:32;52.92;;;25.02;;
52508;SDS011;38420;53.150;6.370;2023-12-04T06:02:57;45.65;;;23.20;;
52508;SDS011;38420;53.150;6.370;2023-12-04T06:05:23;46.25;;;24.27;;
52508;SDS011;38420;53.150;6.370;2023-12-04T06:07:49;46.85;;;23.20;;
52508;SDS011;38420;53.150;6.370;2023-12-04T06:10:14;47.55;;;23.90;;
52508;SDS011;38420;53.150;6.370;2023-12-04T06:12:40;42.90;;;23.35;;
52508;SDS011;38420;53.150;6.370;2023-12-04T06:15:06;43.38;;;21.75;;
52508;SDS011;38420;53.150;6.370;2023-12-04T06:17:32;45.22;;;23.58;;
52508;SDS011;38420;53.150;6.370;2023-12-04T06:19:58;45.20;;;22.83;;
52508;SDS011;38420;53.150;6.370;2023-12-04T06:22:23;47.47;;;23.15;;
52508;SDS011;38420;53.150;6.370;2023-12-04T06:24:49;46.20;;;22.88;;
52508;SDS011;38420;53.150;6.370;2023-12-04T06:27:16;47.42;;;21.15;;
52508;SDS011;38420;53.150;6.370;2023-12-04T06:29:46;39.67;;;20.48;;
52508;SDS011;38420;53.150;6.370;2023-12-04T06:32:13;46.13;;;21.50;;
52508;SDS011;38420;53.150;6.370;2023-12-04T06:34:40;42.00;;;20.92;;
52508;SDS011;38420;53.150;6.370;2023-12-04T06:37:09;43.88;;;22.05;;
52508;SDS011;38420;53.150;6.370;2023-12-04T06:39:37;43.33;;;20.73;;
52508;SDS011;38420;53.150;6.370;2023-12-04T06:42:04;42.05;;;21.25;;
52508;SDS011;38420;53.150;6.370;2023-12-04T06:44:32;43.50;;;20.55;;
52508;SDS011;38420;53.150;6.370;2023-12-04T06:46:58;45.10;;;20.80;;
52508;SDS011;38420;53.150;6.370;2023-12-04T06:49:25;43.13;;;21.73;;
52508;SDS011;38420;53.150;6.370;2023-12-04T06:51:58;39.75;;;19.73;;
52508;SDS011;38420;53.150;6.370;2023-12-04T06:54:24;36.95;;;18.58;;
52508;SDS011;38420;53.150;6.370;2023-12-04T06:56:50;42.72;;;20.65;;
52508;SDS011;38420;53.150;6.370;2023-12-04T06:59:17;38.55;;;20.17;;
52508;SDS011;38420;53.150;6.370;2023-12-04T07:01:43;42.88;;;20.35;;
52508;SDS011;38420;53.150;6.370;2023-12-04T07:04:08;37.85;;;20.17;;
52508;SDS011;38420;53.150;6.370;2023-12-04T07:06:37;41.38;;;18.77;;
52508;SDS011;38420;53.150;6.370;2023-12-04T07:09:04;37.45;;;18.02;;
52508;SDS011;38420;53.150;6.370;2023-12-04T07:11:32;39.22;;;19.55;;
52508;SDS011;38420;53.150;6.370;2023-12-04T07:13:58;40.28;;;20.27;;
52508;SDS011;38420;53.150;6.370;2023-12-04T07:16:24;36.65;;;18.65;;
52508;SDS011;38420;53.150;6.370;2023-12-04T07:18:50;41.40;;;19.73;;
52508;SDS011;38420;53.150;6.370;2023-12-04T07:21:16;41.85;;;19.25;;
52508;SDS011;38420;53.150;6.370;2023-12-04T07:23:41;39.78;;;18.42;;
52508;SDS011;38420;53.150;6.370;2023-12-04T07:26:07;37.00;;;18.67;;
52508;SDS011;38420;53.150;6.370;2023-12-04T07:28:33;37.03;;;17.63;;
52508;SDS011;38420;53.150;6.370;2023-12-04T07:30:59;34.95;;;18.02;;
52508;SDS011;38420;53.150;6.370;2023-12-04T07:33:26;38.88;;;18.10;;
52508;SDS011;38420;53.150;6.370;2023-12-04T07:35:52;37.83;;;18.40;;
52508;SDS011;38420;53.150;6.370;2023-12-04T07:38:18;37.58;;;18.25;;
52508;SDS011;38420;53.150;6.370;2023-12-04T07:40:44;37.28;;;19.08;;
52508;SDS011;38420;53.150;6.370;2023-12-04T07:43:10;36.15;;;17.70;;
52508;SDS011;38420;53.150;6.370;2023-12-04T07:45:36;34.25;;;16.50;;
52508;SDS011;38420;53.150;6.370;2023-12-04T07:48:05;35.85;;;17.73;;
52508;SDS011;38420;53.150;6.370;2023-12-04T07:50:31;37.33;;;18.38;;
52508;SDS011;38420;53.150;6.370;2023-12-04T07:52:57;33.58;;;16.95;;
52508;SDS011;38420;53.150;6.370;2023-12-04T07:55:23;32.08;;;16.58;;
52508;SDS011;38420;53.150;6.370;2023-12-04T07:57:48;29.67;;;16.67;;
52508;SDS011;38420;53.150;6.370;2023-12-04T08:00:15;33.92;;;16.88;;
52508;SDS011;38420;53.150;6.370;2023-12-04T08:02:43;30.80;;;15.80;;
52508;SDS011;38420;53.150;6.370;2023-12-04T08:05:10;32.92;;;16.92;;
52508;SDS011;38420;53.150;6.370;2023-12-04T08:07:37;30.83;;;15.73;;
52508;SDS011;38420;53.150;6.370;2023-12-04T08:10:03;29.88;;;15.93;;
52508;SDS011;38420;53.150;6.370;2023-12-04T08:12:29;32.15;;;16.42;;
52508;SDS011;38420;53.150;6.370;2023-12-04T08:14:54;30.25;;;16.17;;
52508;SDS011;38420;53.150;6.370;2023-12-04T08:17:20;30.80;;;14.10;;
52508;SDS011;38420;53.150;6.370;2023-12-04T08:19:46;30.45;;;15.30;;
52508;SDS011;38420;53.150;6.370;2023-12-04T08:22:11;28.50;;;15.13;;
52508;SDS011;38420;53.150;6.370;2023-12-04T08:24:37;29.98;;;15.07;;
52508;SDS011;38420;53.150;6.370;2023-12-04T08:27:03;28.08;;;13.57;;
52508;SDS011;38420;53.150;6.370;2023-12-04T08:29:28;29.42;;;15.18;;
52508;SDS011;38420;53.150;6.370;2023-12-04T08:31:54;26.05;;;13.82;;
52508;SDS011;38420;53.150;6.370;2023-12-04T08:34:20;27.75;;;13.23;;
52508;SDS011;38420;53.150;6.370;2023-12-04T08:36:46;26.23;;;12.30;;
52508;SDS011;38420;53.150;6.370;2023-12-04T08:39:11;27.52;;;13.77;;
52508;SDS011;38420;53.150;6.370;2023-12-04T08:41:37;25.48;;;13.85;;
52508;SDS011;38420;53.150;6.370;2023-12-04T08:44:03;23.55;;;12.57;;
52508;SDS011;38420;53.150;6.370;2023-12-04T08:46:29;24.88;;;13.32;;
52508;SDS011;38420;53.150;6.370;2023-12-04T08:48:54;26.15;;;12.77;;
52508;SDS011;38420;53.150;6.370;2023-12-04T08:51:20;27.13;;;12.20;;
52508;SDS011;38420;53.150;6.370;2023-12-04T08:53:46;24.67;;;13.27;;
52508;SDS011;38420;53.150;6.370;2023-12-04T08:56:11;24.30;;;12.90;;
52508;SDS011;38420;53.150;6.370;2023-12-04T08:58:38;26.65;;;13.00;;
52508;SDS011;38420;53.150;6.370;2023-12-04T09:01:03;27.85;;;13.32;;
52508;SDS011;38420;53.150;6.370;2023-12-04T09:03:29;25.15;;;12.13;;
52508;SDS011;38420;53.150;6.370;2023-12-04T09:05:59;26.15;;;12.48;;
52508;SDS011;38420;53.150;6.370;2023-12-04T09:08:26;25.00;;;13.63;;
52508;SDS011;38420;53.150;6.370;2023-12-04T09:10:52;23.95;;;12.98;;
52508;SDS011;38420;53.150;6.370;2023-12-04T09:13:18;22.23;;;11.18;;
52508;SDS011;38420;53.150;6.370;2023-12-04T09:15:44;24.17;;;12.77;;
52508;SDS011;38420;53.150;6.370;2023-12-04T09:18:09;23.98;;;12.77;;
52508;SDS011;38420;53.150;6.370;2023-12-04T09:20:35;22.38;;;11.73;;
52508;SDS011;38420;53.150;6.370;2023-12-04T09:23:01;21.60;;;10.90;;
52508;SDS011;38420;53.150;6.370;2023-12-04T09:25:26;22.52;;;11.52;;
52508;SDS011;38420;53.150;6.370;2023-12-04T09:27:52;21.75;;;11.23;;
52508;SDS011;38420;53.150;6.370;2023-12-04T09:30:18;22.95;;;13.05;;
52508;SDS011;38420;53.150;6.370;2023-12-04T09:32:44;21.10;;;11.40;;
52508;SDS011;38420;53.150;6.370;2023-12-04T09:35:10;23.35;;;11.63;;
52508;SDS011;38420;53.150;6.370;2023-12-04T09:37:36;23.40;;;11.32;;
52508;SDS011;38420;53.150;6.370;2023-12-04T09:40:02;22.25;;;11.77;;
52508;SDS011;38420;53.150;6.370;2023-12-04T09:42:29;21.60;;;11.13;;
52508;SDS011;38420;53.150;6.370;2023-12-04T09:44:55;24.83;;;11.88;;
52508;SDS011;38420;53.150;6.370;2023-12-04T09:47:22;20.00;;;10.85;;
52508;SDS011;38420;53.150;6.370;2023-12-04T09:49:50;20.88;;;10.70;;
52508;SDS011;38420;53.150;6.370;2023-12-04T09:52:18;18.60;;;10.00;;
52508;SDS011;38420;53.150;6.370;2023-12-04T09:54:44;17.80;;;9.63;;
52508;SDS011;38420;53.150;6.370;2023-12-04T09:57:11;18.58;;;9.85;;
52508;SDS011;38420;53.150;6.370;2023-12-04T09:59:38;19.88;;;10.02;;
52508;SDS011;38420;53.150;6.370;2023-12-04T10:02:04;23.75;;;10.38;;
52508;SDS011;38420;53.150;6.370;2023-12-04T10:04:31;17.45;;;9.20;;
52508;SDS011;38420;53.150;6.370;2023-12-04T10:06:58;18.60;;;10.38;;
52508;SDS011;38420;53.150;6.370;2023-12-04T10:09:24;18.13;;;9.20;;
52508;SDS011;38420;53.150;6.370;2023-12-04T10:11:52;18.00;;;10.02;;
52508;SDS011;38420;53.150;6.370;2023-12-04T10:14:21;16.33;;;9.30;;
52508;SDS011;38420;53.150;6.370;2023-12-04T10:16:47;14.30;;;8.52;;
52508;SDS011;38420;53.150;6.370;2023-12-04T10:19:24;18.80;;;9.05;;
52508;SDS011;38420;53.150;6.370;2023-12-04T10:21:58;16.90;;;9.25;;
52508;SDS011;38420;53.150;6.370;2023-12-04T10:24:28;17.30;;;9.23;;
52508;SDS011;38420;53.150;6.370;2023-12-04T10:26:54;27.63;;;16.38;;
52508;SDS011;38420;53.150;6.370;2023-12-04T10:29:20;21.63;;;16.85;;
52508;SDS011;38420;53.150;6.370;2023-12-04T10:31:45;19.02;;;12.05;;
52508;SDS011;38420;53.150;6.370;2023-12-04T10:34:13;26.85;;;17.80;;
52508;SDS011;38420;53.150;6.370;2023-12-04T10:36:38;40.42;;;31.63;;
52508;SDS011;38420;53.150;6.370;2023-12-04T10:39:04;48.95;;;36.70;;
52508;SDS011;38420;53.150;6.370;2023-12-04T10:41:30;51.97;;;40.60;;
52508;SDS011;38420;53.150;6.370;2023-12-04T10:43:56;40.13;;;26.35;;
52508;SDS011;38420;53.150;6.370;2023-12-04T10:46:24;32.33;;;27.20;;
52508;SDS011;38420;53.150;6.370;2023-12-04T10:48:50;32.53;;;29.02;;
52508;SDS011;38420;53.150;6.370;2023-12-04T10:51:16;23.20;;;18.73;;
52508;SDS011;38420;53.150;6.370;2023-12-04T10:53:42;21.08;;;17.38;;
52508;SDS011;38420;53.150;6.370;2023-12-04T10:56:10;16.15;;;11.60;;
52508;SDS011;38420;53.150;6.370;2023-12-04T10:58:40;26.73;;;21.40;;
52508;SDS011;38420;53.150;6.370;2023-12-04T11:01:07;13.75;;;10.48;;
52508;SDS011;38420;53.150;6.370;2023-12-04T11:03:56;15.90;;;9.35;;
52508;SDS011;38420;53.150;6.370;2023-12-04T11:06:24;14.65;;;9.35;;
52508;SDS011;38420;53.150;6.370;2023-12-04T11:08:53;13.57;;;7.93;;
52508;SDS011;38420;53.150;6.370;2023-12-04T11:11:40;14.00;;;9.00;;
52508;SDS011;38420;53.150;6.370;2023-12-04T11:14:11;15.77;;;9.27;;
52508;SDS011;38420;53.150;6.370;2023-12-04T11:16:47;16.20;;;9.10;;
52508;SDS011;38420;53.150;6.370;2023-12-04T11:19:22;14.00;;;8.63;;
52508;SDS011;38420;53.150;6.370;2023-12-04T11:21:54;15.75;;;9.30;;
52508;SDS011;38420;53.150;6.370;2023-12-04T11:24:23;17.95;;;8.95;;
52508;SDS011;38420;53.150;6.370;2023-12-04T11:26:49;19.88;;;8.32;;
52508;SDS011;38420;53.150;6.370;2023-12-04T11:29:16;14.82;;;8.07;;
52508;SDS011;38420;53.150;6.370;2023-12-04T11:31:43;14.60;;;8.27;;
52508;SDS011;38420;53.150;6.370;2023-12-04T11:34:11;12.50;;;7.63;;
52508;SDS011;38420;53.150;6.370;2023-12-04T11:36:37;12.77;;;8.18;;
52508;SDS011;38420;53.150;6.370;2023-12-04T11:39:03;17.15;;;9.98;;
52508;SDS011;38420;53.150;6.370;2023-12-04T11:41:36;15.40;;;9.20;;
52508;SDS011;38420;53.150;6.370;2023-12-04T11:44:02;15.57;;;7.55;;
52508;SDS011;38420;53.150;6.370;2023-12-04T11:46:28;13.77;;;8.35;;
52508;SDS011;38420;53.150;6.370;2023-12-04T11:48:56;14.05;;;7.80;;
52508;SDS011;38420;53.150;6.370;2023-12-04T11:54:09;12.25;;;8.38;;
52508;SDS011;38420;53.150;6.370;2023-12-04T11:56:35;13.18;;;7.65;;
52508;SDS011;38420;53.150;6.370;2023-12-04T11:59:04;17.15;;;8.60;;
52508;SDS011;38420;53.150;6.370;2023-12-04T12:01:37;15.67;;;8.73;;
52508;SDS011;38420;53.150;6.370;2023-12-04T12:04:07;14.20;;;7.68;;
52508;SDS011;38420;53.150;6.370;2023-12-04T12:06:35;13.57;;;8.20;;
52508;SDS011;38420;53.150;6.370;2023-12-04T12:09:00;13.13;;;7.60;;
52508;SDS011;38420;53.150;6.370;2023-12-04T12:11:26;15.15;;;9.35;;
52508;SDS011;38420;53.150;6.370;2023-12-04T12:13:53;14.48;;;8.75;;
52508;SDS011;38420;53.150;6.370;2023-12-04T12:16:19;15.23;;;8.43;;
52508;SDS011;38420;53.150;6.370;2023-12-04T12:18:44;19.45;;;12.50;;
52508;SDS011;38420;53.150;6.370;2023-12-04T12:21:11;167.10;;;68.38;;
52508;SDS011;38420;53.150;6.370;2023-12-04T12:23:37;128.88;;;71.88;;
52508;SDS011;38420;53.150;6.370;2023-12-04T12:26:03;30.60;;;20.15;;
52508;SDS011;38420;53.150;6.370;2023-12-04T12:28:29;24.65;;;15.55;;
52508;SDS011;38420;53.150;6.370;2023-12-04T12:30:56;47.70;;;35.30;;
52508;SDS011;38420;53.150;6.370;2023-12-04T12:33:26;22.90;;;15.93;;
52508;SDS011;38420;53.150;6.370;2023-12-04T12:35:51;18.52;;;13.05;;
52508;SDS011;38420;53.150;6.370;2023-12-04T12:38:17;16.02;;;9.70;;
52508;SDS011;38420;53.150;6.370;2023-12-04T12:40:44;17.67;;;11.35;;
52508;SDS011;38420;53.150;6.370;2023-12-04T12:43:09;13.82;;;8.68;;
52508;SDS011;38420;53.150;6.370;2023-12-04T12:45:39;15.98;;;10.90;;
52508;SDS011;38420;53.150;6.370;2023-12-04T12:48:05;14.52;;;9.35;;
52508;SDS011;38420;53.150;6.370;2023-12-04T12:50:35;18.52;;;13.27;;
52508;SDS011;38420;53.150;6.370;2023-12-04T12:53:01;17.42;;;11.15;;
52508;SDS011;38420;53.150;6.370;2023-12-04T12:55:27;13.48;;;8.40;;
52508;SDS011;38420;53.150;6.370;2023-12-04T12:57:55;16.45;;;9.25;;
52508;SDS011;38420;53.150;6.370;2023-12-04T13:00:21;15.50;;;9.50;;
52508;SDS011;38420;53.150;6.370;2023-12-04T13:02:47;12.85;;;7.53;;
52508;SDS011;38420;53.150;6.370;2023-12-04T13:05:13;13.65;;;8.20;;
52508;SDS011;38420;53.150;6.370;2023-12-04T13:07:39;14.52;;;7.90;;
52508;SDS011;38420;53.150;6.370;2023-12-04T13:10:07;14.98;;;7.85;;
52508;SDS011;38420;53.150;6.370;2023-12-04T13:12:33;15.00;;;7.90;;
52508;SDS011;38420;53.150;6.370;2023-12-04T13:15:00;15.40;;;7.68;;
52508;SDS011;38420;53.150;6.370;2023-12-04T13:17:26;12.88;;;7.25;;
52508;SDS011;38420;53.150;6.370;2023-12-04T13:19:53;12.07;;;7.28;;
52508;SDS011;38420;53.150;6.370;2023-12-04T13:22:18;13.27;;;7.82;;
52508;SDS011;38420;53.150;6.370;2023-12-04T13:24:44;15.93;;;7.32;;
52508;SDS011;38420;53.150;6.370;2023-12-04T13:27:10;14.52;;;8.25;;
52508;SDS011;38420;53.150;6.370;2023-12-04T13:29:36;15.40;;;8.60;;
52508;SDS011;38420;53.150;6.370;2023-12-04T13:32:02;13.88;;;8.10;;
52508;SDS011;38420;53.150;6.370;2023-12-04T13:34:29;14.20;;;8.27;;
52508;SDS011;38420;53.150;6.370;2023-12-04T13:36:54;12.45;;;7.60;;
52508;SDS011;38420;53.150;6.370;2023-12-04T13:39:21;13.80;;;7.43;;
52508;SDS011;38420;53.150;6.370;2023-12-04T13:42:02;12.80;;;8.05;;
52508;SDS011;38420;53.150;6.370;2023-12-04T13:44:47;13.48;;;7.53;;
52508;SDS011;38420;53.150;6.370;2023-12-04T13:47:12;20.48;;;12.55;;
52508;SDS011;38420;53.150;6.370;2023-12-04T13:49:39;105.38;;;56.25;;
52508;SDS011;38420;53.150;6.370;2023-12-04T13:52:05;87.93;;;49.42;;
52508;SDS011;38420;53.150;6.370;2023-12-04T13:54:33;42.92;;;28.20;;
52508;SDS011;38420;53.150;6.370;2023-12-04T13:57:14;22.88;;;16.85;;
52508;SDS011;38420;53.150;6.370;2023-12-04T14:00:06;29.17;;;18.00;;
52508;SDS011;38420;53.150;6.370;2023-12-04T14:02:32;17.38;;;11.45;;
52508;SDS011;38420;53.150;6.370;2023-12-04T14:05:00;18.95;;;11.85;;
52508;SDS011;38420;53.150;6.370;2023-12-04T14:07:26;15.50;;;10.23;;
52508;SDS011;38420;53.150;6.370;2023-12-04T14:09:52;14.07;;;9.25;;
52508;SDS011;38420;53.150;6.370;2023-12-04T14:12:18;14.50;;;9.00;;
52508;SDS011;38420;53.150;6.370;2023-12-04T14:14:43;13.10;;;8.40;;
52508;SDS011;38420;53.150;6.370;2023-12-04T14:17:09;14.98;;;8.07;;
52508;SDS011;38420;53.150;6.370;2023-12-04T14:19:36;15.55;;;8.40;;
52508;SDS011;38420;53.150;6.370;2023-12-04T14:22:04;13.77;;;8.10;;